Time,TemperatureF,DewpointF,PressureIn,WindDirection,WindDirectionDegrees,WindSpeedMPH,WindSpeedGustMPH,Humidity,HourlyPrecipIn,Conditions,Clouds,dailyrainin,SoftwareType,DateUTC
2013-02-28 00:13:00,30.4,25.6,30.10,WNW,292,8.3,-999.0,82,-99.99,,,0.00,Acu-Link.com,2013-02-28 06:13:00,
2013-02-28 00:28:00,30.0,25.5,30.10,WNW,292,6.3,-999.0,83,-99.99,,,0.00,Acu-Link.com,2013-02-28 06:28:00,
2013-02-28 00:44:00,29.5,25.0,30.10,West,270,7.3,-999.0,83,-99.99,,,0.00,Acu-Link.com,2013-02-28 06:44:00,
2013-02-28 00:59:00,29.5,25.0,30.10,West,270,6.8,-999.0,83,-99.99,,,0.00,Acu-Link.com,2013-02-28 06:59:00,
2013-02-28 01:14:00,28.0,23.8,30.10,West,270,6.3,-999.0,84,-99.99,,,0.00,Acu-Link.com,2013-02-28 07:14:00,
2013-02-28 01:29:00,28.0,23.8,30.11,West,270,9.9,-999.0,84,-99.99,,,0.00,Acu-Link.com,2013-02-28 07:29:00,
2013-02-28 01:44:00,27.7,23.5,30.11,WNW,292,7.3,-999.0,84,-99.99,,,0.00,Acu-Link.com,2013-02-28 07:44:00,
2013-02-28 01:59:00,27.3,23.1,30.11,West,270,7.3,-999.0,84,-99.99,,,0.00,Acu-Link.com,2013-02-28 07:59:00,
2013-02-28 02:14:00,27.3,23.1,30.11,WSW,247,5.8,-999.0,84,-99.99,,,0.00,Acu-Link.com,2013-02-28 08:14:00,
2013-02-28 02:29:00,27.3,23.1,30.11,West,270,7.3,-999.0,84,-99.99,,,0.00,Acu-Link.com,2013-02-28 08:29:00,
2013-02-28 02:44:00,27.3,23.1,30.11,West,270,8.3,-999.0,84,-99.99,,,0.00,Acu-Link.com,2013-02-28 08:44:00,
2013-02-28 03:00:00,27.5,23.3,30.11,West,270,9.4,-999.0,84,-99.99,,,0.00,Acu-Link.com,2013-02-28 09:00:00,
2013-02-28 03:19:00,27.5,23.3,30.11,West,270,9.4,-999.0,84,-99.99,,,0.00,Acu-Link.com,2013-02-28 09:19:00,
2013-02-28 03:34:00,27.5,23.0,30.11,West,270,11.4,-999.0,83,-99.99,,,0.00,Acu-Link.com,2013-02-28 09:34:00,
2013-02-28 03:49:00,27.7,23.2,30.11,West,270,8.9,-999.0,83,-99.99,,,0.00,Acu-Link.com,2013-02-28 09:49:00,
2013-02-28 04:04:00,27.1,22.3,30.11,NW,315,7.3,-999.0,82,-99.99,,,0.00,Acu-Link.com,2013-02-28 10:04:00,
2013-02-28 04:20:00,27.1,22.6,30.12,West,270,8.3,-999.0,83,-99.99,,,0.00,Acu-Link.com,2013-02-28 10:20:00,
2013-02-28 04:35:00,27.3,22.5,30.11,West,270,9.4,-999.0,82,-99.99,,,0.00,Acu-Link.com,2013-02-28 10:35:00,
2013-02-28 04:50:00,27.1,22.3,30.12,West,270,11.9,-999.0,82,-99.99,,,0.00,Acu-Link.com,2013-02-28 10:50:00,
2013-02-28 05:05:00,27.0,22.3,30.12,West,270,10.4,-999.0,82,-99.99,,,0.00,Acu-Link.com,2013-02-28 11:05:00,
2013-02-28 05:20:00,26.4,21.7,30.12,WNW,292,10.9,-999.0,82,-99.99,,,0.00,Acu-Link.com,2013-02-28 11:20:00,
2013-02-28 05:35:00,26.8,22.3,30.12,WNW,292,8.9,-999.0,83,-99.99,,,0.00,Acu-Link.com,2013-02-28 11:35:00,
2013-02-28 05:50:00,26.6,22.1,30.12,West,270,10.9,-999.0,83,-99.99,,,0.00,Acu-Link.com,2013-02-28 11:50:00,
2013-02-28 06:05:00,26.4,22.0,30.12,West,270,11.4,-999.0,83,-99.99,,,0.00,Acu-Link.com,2013-02-28 12:05:00,
2013-02-28 06:20:00,26.4,22.0,30.13,NW,315,9.4,-999.0,83,-99.99,,,0.00,Acu-Link.com,2013-02-28 12:20:00,
2013-02-28 06:36:00,26.6,22.1,30.13,WNW,292,8.9,-999.0,83,-99.99,,,0.00,Acu-Link.com,2013-02-28 12:36:00,
2013-02-28 06:51:00,27.1,22.3,30.12,WNW,292,8.3,-999.0,82,-99.99,,,0.00,Acu-Link.com,2013-02-28 12:51:00,
2013-02-28 07:06:00,28.0,23.5,30.13,NW,315,7.8,-999.0,83,-99.99,,,0.00,Acu-Link.com,2013-02-28 13:06:00,
2013-02-28 07:21:00,28.9,24.1,30.13,NNW,337,9.4,-999.0,82,-99.99,,,0.00,Acu-Link.com,2013-02-28 13:21:00,
2013-02-28 07:36:00,29.1,24.3,30.13,WNW,292,7.3,-999.0,82,-99.99,,,0.00,Acu-Link.com,2013-02-28 13:36:00,
2013-02-28 07:51:00,29.1,24.3,30.13,North,0,6.8,-999.0,82,-99.99,,,0.00,Acu-Link.com,2013-02-28 13:51:00,
2013-02-28 08:06:00,29.5,24.7,30.13,NNE,22,8.3,-999.0,82,-99.99,,,0.00,Acu-Link.com,2013-02-28 14:06:00,
2013-02-28 08:21:00,30.0,25.2,30.14,NNE,22,9.4,-999.0,82,-99.99,,,0.00,Acu-Link.com,2013-02-28 14:21:00,
2013-02-28 08:36:00,30.4,25.6,30.14,NW,315,9.9,-999.0,82,-99.99,,,0.00,Acu-Link.com,2013-02-28 14:36:00,
2013-02-28 08:52:00,30.9,25.8,30.15,NW,315,8.9,-999.0,81,-99.99,,,0.00,Acu-Link.com,2013-02-28 14:52:00,
2013-02-28 09:07:00,31.8,26.3,30.15,WNW,292,11.9,-999.0,80,-99.99,,,0.00,Acu-Link.com,2013-02-28 15:07:00,
2013-02-28 09:22:00,32.4,26.9,30.16,WNW,292,12.5,-999.0,80,-99.99,,,0.00,Acu-Link.com,2013-02-28 15:22:00,
2013-02-28 09:37:00,32.9,27.4,30.16,NW,315,10.9,-999.0,80,-99.99,,,0.00,Acu-Link.com,2013-02-28 15:37:00,
2013-02-28 09:52:00,33.4,27.3,30.16,NW,315,14.5,-999.0,78,-99.99,,,0.00,Acu-Link.com,2013-02-28 15:52:00,
2013-02-28 10:07:00,33.4,27.3,30.15,WNW,292,15.5,-999.0,78,-99.99,,,0.00,Acu-Link.com,2013-02-28 16:07:00,
2013-02-28 10:22:00,34.0,27.2,30.15,NE,45,13.5,-999.0,76,-99.99,,,0.00,Acu-Link.com,2013-02-28 16:22:00,
2013-02-28 10:37:00,34.3,27.9,30.15,NNW,337,18.6,-999.0,77,-99.99,,,0.00,Acu-Link.com,2013-02-28 16:37:00,
2013-02-28 10:53:00,34.0,27.9,30.15,NNW,337,17.1,-999.0,78,-99.99,,,0.00,Acu-Link.com,2013-02-28 16:53:00,
2013-02-28 11:08:00,34.5,28.0,30.15,NNE,22,16.6,-999.0,77,-99.99,,,0.00,Acu-Link.com,2013-02-28 17:08:00,
2013-02-28 11:23:00,35.1,28.3,30.15,NW,315,16.1,-999.0,76,-99.99,,,0.00,Acu-Link.com,2013-02-28 17:23:00,
2013-02-28 11:38:00,34.5,28.0,30.16,NNE,22,12.5,-999.0,77,-99.99,,,0.00,Acu-Link.com,2013-02-28 17:38:00,
2013-02-28 11:53:00,34.3,28.2,30.16,North,0,19.1,-999.0,78,-99.99,,,0.00,Acu-Link.com,2013-02-28 17:53:00,
2013-02-28 12:08:00,34.2,28.1,30.16,North,0,15.0,-999.0,78,-99.99,,,0.00,Acu-Link.com,2013-02-28 18:08:00,
2013-02-28 12:23:00,34.5,28.0,30.17,WNW,292,15.5,-999.0,77,-99.99,,,0.00,Acu-Link.com,2013-02-28 18:23:00,
2013-02-28 12:38:00,34.9,28.4,30.17,NNW,337,17.1,-999.0,77,-99.99,,,0.00,Acu-Link.com,2013-02-28 18:38:00,
2013-02-28 12:54:00,34.7,28.6,30.16,West,270,16.1,-999.0,78,-99.99,,,0.00,Acu-Link.com,2013-02-28 18:54:00,
2013-02-28 13:09:00,34.2,28.1,30.17,WNW,292,13.5,-999.0,78,-99.99,,,0.00,Acu-Link.com,2013-02-28 19:09:00,
2013-02-28 13:24:00,34.0,27.9,30.16,NNE,22,15.5,-999.0,78,-99.99,,,0.00,Acu-Link.com,2013-02-28 19:24:00,
2013-02-28 13:39:00,34.2,28.1,30.16,WNW,292,13.0,-999.0,78,-99.99,,,0.00,Acu-Link.com,2013-02-28 19:39:00,
2013-02-28 13:54:00,34.3,28.2,30.15,NW,315,20.2,-999.0,78,-99.99,,,0.00,Acu-Link.com,2013-02-28 19:54:00,
2013-02-28 14:09:00,34.0,27.9,30.14,NNW,337,15.5,-999.0,78,-99.99,,,0.00,Acu-Link.com,2013-02-28 20:09:00,
2013-02-28 14:24:00,34.3,27.9,30.15,NW,315,16.1,-999.0,77,-99.99,,,0.00,Acu-Link.com,2013-02-28 20:24:00,
2013-02-28 14:40:00,34.7,28.2,30.15,NNW,337,13.0,-999.0,77,-99.99,,,0.00,Acu-Link.com,2013-02-28 20:40:00,
2013-02-28 14:55:00,34.5,28.0,30.14,WNW,292,14.0,-999.0,77,-99.99,,,0.00,Acu-Link.com,2013-02-28 20:55:00,
2013-02-28 15:10:00,34.3,28.2,30.14,NNW,337,14.5,-999.0,78,-99.99,,,0.00,Acu-Link.com,2013-02-28 21:10:00,
2013-02-28 15:25:00,34.5,28.4,30.15,NW,315,11.4,-999.0,78,-99.99,,,0.00,Acu-Link.com,2013-02-28 21:25:00,
2013-02-28 15:40:00,34.2,27.8,30.15,WNW,292,10.9,-999.0,77,-99.99,,,0.00,Acu-Link.com,2013-02-28 21:40:00,
2013-02-28 15:55:00,34.2,27.8,30.15,NNW,337,13.5,-999.0,77,-99.99,,,0.00,Acu-Link.com,2013-02-28 21:55:00,
2013-02-28 16:10:00,34.2,28.1,30.15,NNE,22,10.9,-999.0,78,-99.99,,,0.00,Acu-Link.com,2013-02-28 22:10:00,
2013-02-28 16:25:00,34.2,27.8,30.15,North,0,12.5,-999.0,77,-99.99,,,0.00,Acu-Link.com,2013-02-28 22:25:00,
2013-02-28 16:40:00,34.2,27.8,30.15,WNW,292,14.5,-999.0,77,-99.99,,,0.00,Acu-Link.com,2013-02-28 22:40:00,
2013-02-28 16:56:00,34.0,27.6,30.15,NNW,337,12.5,-999.0,77,-99.99,,,0.00,Acu-Link.com,2013-02-28 22:56:00,
2013-02-28 17:11:00,33.8,27.1,30.14,NW,315,11.4,-999.0,76,-99.99,,,0.00,Acu-Link.com,2013-02-28 23:11:00,
2013-02-28 17:26:00,33.6,26.9,30.14,NW,315,14.5,-999.0,76,-99.99,,,0.00,Acu-Link.com,2013-02-28 23:26:00,
2013-02-28 17:41:00,33.4,27.0,30.15,WNW,292,10.9,-999.0,77,-99.99,,,0.00,Acu-Link.com,2013-02-28 23:41:00,
2013-02-28 17:56:00,33.4,27.3,30.15,North,0,10.9,-999.0,78,-99.99,,,0.00,Acu-Link.com,2013-02-28 23:56:00,
2013-02-28 18:11:00,33.4,27.6,30.15,WNW,292,9.4,-999.0,79,-99.99,,,0.00,Acu-Link.com,2013-03-01 00:11:00,
2013-02-28 18:26:00,33.3,26.9,30.16,NW,315,9.4,-999.0,77,-99.99,,,0.00,Acu-Link.com,2013-03-01 00:26:00,
2013-02-28 18:41:00,33.3,26.9,30.16,WNW,292,6.8,-999.0,77,-99.99,,,0.00,Acu-Link.com,2013-03-01 00:41:00,
2013-02-28 18:57:00,33.1,27.0,30.16,NW,315,11.4,-999.0,78,-99.99,,,0.00,Acu-Link.com,2013-03-01 00:57:00,
2013-02-28 19:12:00,33.3,26.9,30.17,NW,315,13.0,-999.0,77,-99.99,,,0.00,Acu-Link.com,2013-03-01 01:12:00,
2013-02-28 19:27:00,33.3,27.2,30.17,NW,315,11.4,-999.0,78,-99.99,,,0.00,Acu-Link.com,2013-03-01 01:27:00,
2013-02-28 19:42:00,33.3,26.6,30.17,NE,45,9.4,-999.0,76,-99.99,,,0.00,Acu-Link.com,2013-03-01 01:42:00,
2013-02-28 19:57:00,33.1,27.0,30.17,WNW,292,10.4,-999.0,78,-99.99,,,0.00,Acu-Link.com,2013-03-01 01:57:00,
2013-02-28 20:12:00,33.3,26.6,30.17,NNE,22,9.9,-999.0,76,-99.99,,,0.00,Acu-Link.com,2013-03-01 02:12:00,
2013-02-28 20:27:00,33.3,27.2,30.17,NW,315,6.8,-999.0,78,-99.99,,,0.00,Acu-Link.com,2013-03-01 02:27:00,
2013-02-28 20:42:00,33.1,27.0,30.17,NE,45,6.8,-999.0,78,-99.99,,,0.00,Acu-Link.com,2013-03-01 02:42:00,
2013-02-28 20:57:00,33.3,27.2,30.17,NNW,337,7.3,-999.0,78,-99.99,,,0.00,Acu-Link.com,2013-03-01 02:57:00,
2013-02-28 21:13:00,33.3,27.2,30.17,WNW,292,9.9,-999.0,78,-99.99,,,0.00,Acu-Link.com,2013-03-01 03:13:00,
2013-02-28 21:28:00,33.3,27.2,30.17,NW,315,9.4,-999.0,78,-99.99,,,0.00,Acu-Link.com,2013-03-01 03:28:00,
2013-02-28 21:43:00,33.3,26.9,30.18,ENE,67,7.8,-999.0,77,-99.99,,,0.00,Acu-Link.com,2013-03-01 03:43:00,
2013-02-28 21:58:00,33.1,27.0,30.17,NW,315,9.9,-999.0,78,-99.99,,,0.00,Acu-Link.com,2013-03-01 03:58:00,
2013-02-28 22:13:00,33.4,27.3,30.17,NNW,337,10.4,-999.0,78,-99.99,,,0.00,Acu-Link.com,2013-03-01 04:13:00,
2013-02-28 22:28:00,33.3,27.2,30.17,NNE,22,8.3,-999.0,78,-99.99,,,0.00,Acu-Link.com,2013-03-01 04:28:00,
2013-02-28 22:43:00,33.4,27.0,30.16,NNE,22,5.8,-999.0,77,-99.99,,,0.00,Acu-Link.com,2013-03-01 04:43:00,
2013-02-28 22:58:00,33.3,27.2,30.16,NNE,22,7.8,-999.0,78,-99.99,,,0.00,Acu-Link.com,2013-03-01 04:58:00,
2013-02-28 23:13:00,33.1,27.3,30.17,NNW,337,8.9,-999.0,79,-99.99,,,0.00,Acu-Link.com,2013-03-01 05:13:00,
2013-02-28 23:29:00,33.3,27.5,30.17,NNE,22,6.8,-999.0,79,-99.99,,,0.00,Acu-Link.com,2013-03-01 05:29:00,
2013-02-28 23:44:00,32.9,27.1,30.16,NE,45,9.4,-999.0,79,-99.99,,,0.00,Acu-Link.com,2013-03-01 05:44:00,
2013-02-28 23:59:00,32.9,27.1,30.16,NNW,337,8.3,-999.0,79,-99.99,,,0.00,Acu-Link.com,2013-03-01 05:59:00,